Time;durP1;ratioP1;P1;durP2;ratioP2;P2;SDS_P1;SDS_P2;PMS_P1;PMS_P2;Temp;Humidity;BMP_temperature;BMP_pressure;BME280_temperature;BME280_humidity;BME280_pressure;Samples;Min_cycle;Max_cycle;Signal;HPM_P1;HPM_P2
2023/04/06 16:57:27;;;;;;;138.30;57.10;;;;;;;0.48;74.45;98950.50;102396;1289;637315;-73
2023/04/06 16:59:59;;;;;;;98.60;44.90;;;;;;;0.45;74.94;98947.46;105112;1260;94308;-72
2023/04/06 17:02:27;;;;;;;89.50;38.60;;;;;;;0.44;74.38;98951.34;105345;1260;94362;-73
2023/04/06 17:04:56;;;;;;;69.80;34.40;;;;;;;0.43;74.90;98945.61;105191;1260;106447;-72
2023/04/06 17:07:30;;;;;;;84.70;35.20;;;;;;;0.39;75.28;98946.43;105168;1258;101196;-72
2023/04/06 17:09:59;;;;;;;112.20;46.10;;;;;;;0.34;76.99;98945.05;105254;1254;143993;-77
2023/04/06 17:12:28;;;;;;;95.60;36.70;;;;;;;0.29;76.98;98938.23;105214;1254;94325;-72
2023/04/06 17:14:56;;;;;;;123.80;48.90;;;;;;;0.27;76.63;98943.84;105345;1257;94216;-73
2023/04/06 17:17:24;;;;;;;117.90;48.10;;;;;;;0.24;76.59;98949.88;105565;1257;107585;-77
2023/04/06 17:19:52;;;;;;;96.80;43.20;;;;;;;0.23;76.22;98949.03;105458;1254;101304;-73
2023/04/06 17:22:20;;;;;;;91.30;42.70;;;;;;;0.22;76.32;98944.91;105497;1254;108024;-73
2023/04/06 17:24:48;;;;;;;84.10;36.10;;;;;;;0.20;76.48;98946.88;105677;1257;95751;-73
2023/04/06 17:27:16;;;;;;;116.20;44.00;;;;;;;0.21;76.46;98944.59;105381;1251;96846;-71
2023/04/06 17:29:44;;;;;;;77.00;31.50;;;;;;;0.19;76.26;98942.38;105755;1254;108119;-73
2023/04/06 17:32:12;;;;;;;118.80;48.40;;;;;;;0.18;76.24;98938.22;105781;1254;102179;-72
2023/04/06 17:34:40;;;;;;;136.80;52.60;;;;;;;0.17;76.36;98941.74;105485;1251;107785;-71
2023/04/06 17:37:08;;;;;;;51.80;25.90;;;;;;;0.18;75.99;98940.52;105307;1254;95239;-71
2023/04/06 17:39:36;;;;;;;114.50;51.70;;;;;;;0.19;75.86;98940.64;105620;1254;95704;-72
2023/04/06 17:42:04;;;;;;;72.80;35.10;;;;;;;0.21;75.78;98936.73;105577;1254;108010;-72
2023/04/06 17:44:32;;;;;;;87.40;39.10;;;;;;;0.21;76.35;98937.27;105718;1251;102182;-71
2023/04/06 17:47:00;;;;;;;55.00;30.70;;;;;;;0.21;75.93;98938.84;105456;1251;107979;-75
2023/04/06 17:49:30;;;;;;;76.40;34.10;;;;;;;0.20;76.69;98940.45;105677;1257;95313;-75
2023/04/06 17:51:58;;;;;;;106.30;47.90;;;;;;;0.19;76.01;98939.26;105745;1254;98162;-77
2023/04/06 17:54:26;;;;;;;81.20;43.30;;;;;;;0.21;75.75;98940.23;105504;1251;108539;-73
2023/04/06 17:57:06;;;;;;;73.80;34.70;;;;;;;0.22;75.80;98939.49;105788;1250;102162;-75
2023/04/06 17:59:34;;;;;;;127.00;63.60;;;;;;;0.22;75.88;98941.23;105740;1254;107560;-75
2023/04/06 18:02:03;;;;;;;98.60;50.60;;;;;;;0.21;76.21;98934.48;105750;1251;95147;-73
2023/04/06 18:04:31;;;;;;;71.10;34.50;;;;;;;0.22;76.20;98943.48;105888;1251;95723;-72
2023/04/06 18:06:59;;;;;;;53.00;28.10;;;;;;;0.23;76.37;98942.77;105491;1251;108539;-73
2023/04/06 18:09:30;;;;;;;59.20;32.30;;;;;;;0.22;75.75;98940.88;105457;1257;101960;-75
2023/04/06 18:11:58;;;;;;;57.70;32.20;;;;;;;0.22;76.21;98942.80;105461;1254;109028;-74
2023/04/06 18:14:26;;;;;;;81.00;44.00;;;;;;;0.22;76.58;98942.98;105697;1254;95274;-73
2023/04/06 18:16:54;;;;;;;45.70;24.50;;;;;;;0.21;76.30;98939.87;105822;1254;95635;-78
2023/04/06 18:19:23;;;;;;;44.20;23.10;;;;;;;0.20;76.34;98943.23;105788;1250;108249;-74
2023/04/06 18:21:50;;;;;;;55.00;29.10;;;;;;;0.19;76.58;98939.76;105520;1254;102136;-74
2023/04/06 18:24:18;;;;;;;49.40;27.70;;;;;;;0.20;76.45;98936.95;105565;1254;107610;-74
2023/04/06 18:27:06;;;;;;;57.60;33.10;;;;;;;0.20;76.52;98935.20;105416;1254;95229;-74
2023/04/06 18:29:35;;;;;;;53.30;29.50;;;;;;;0.18;76.23;98930.89;105693;1255;95820;-72
2023/04/06 18:32:05;;;;;;;49.40;27.00;;;;;;;0.20;76.31;98936.96;105640;1254;108524;-76
2023/04/06 18:34:33;;;;;;;52.70;32.00;;;;;;;0.20;76.97;98930.16;105737;1254;101912;-71
2023/04/06 18:37:01;;;;;;;53.00;32.30;;;;;;;0.20;76.64;98931.54;105665;1254;107623;-76
2023/04/06 18:39:29;;;;;;;54.90;33.90;;;;;;;0.20;76.76;98932.05;105662;1250;95547;-72
2023/04/06 18:41:57;;;;;;;46.10;27.10;;;;;;;0.21;76.74;98932.21;105602;1254;95746;-75
2023/04/06 18:44:25;;;;;;;60.00;34.00;;;;;;;0.21;76.71;98926.98;105748;1251;107220;-72
2023/04/06 18:46:53;;;;;;;50.90;32.40;;;;;;;0.23;75.81;98927.23;105766;1251;102255;-73
2023/04/06 18:49:22;;;;;;;46.60;26.20;;;;;;;0.24;76.60;98931.39;105570;1251;107607;-72
2023/04/06 18:51:50;;;;;;;41.70;23.90;;;;;;;0.25;76.50;98929.45;105263;1251;95219;-73
2023/04/06 18:54:18;;;;;;;36.00;19.30;;;;;;;0.26;76.46;98931.52;105414;1254;95746;-73
2023/04/06 18:56:47;;;;;;;41.30;25.10;;;;;;;0.26;76.25;98933.25;105928;1251;109228;-74
2023/04/06 18:59:16;;;;;;;41.30;24.90;;;;;;;0.27;76.28;98925.89;105477;1254;102196;-86
2023/04/06 19:01:49;;;;;;;37.00;22.20;;;;;;;0.27;76.06;98922.92;105891;1251;106699;-74
2023/04/06 19:04:18;;;;;;;39.50;24.10;;;;;;;0.27;77.49;98924.50;105484;1257;95153;-78
2023/04/06 19:06:47;;;;;;;47.50;27.60;;;;;;;0.26;76.75;98926.44;105781;1250;95312;-74
2023/04/06 19:09:14;;;;;;;44.10;24.80;;;;;;;0.26;76.38;98921.73;105536;1253;108095;-82
2023/04/06 19:11:42;;;;;;;42.60;24.00;;;;;;;0.27;75.97;98918.39;105417;1256;102223;-74
2023/04/06 19:14:11;;;;;;;33.60;19.80;;;;;;;0.29;76.32;98922.88;105688;1255;108442;-74
2023/04/06 19:16:42;;;;;;;42.00;25.60;;;;;;;0.29;76.22;98923.91;105462;1251;95288;-73
2023/04/06 19:19:10;;;;;;;39.70;22.80;;;;;;;0.29;76.13;98923.20;105523;1251;95275;-78
2023/04/06 19:21:38;;;;;;;34.20;19.20;;;;;;;0.29;76.58;98924.58;105722;1250;108555;-73
2023/04/06 19:24:06;;;;;;;42.90;24.90;;;;;;;0.29;77.03;98919.37;105420;1251;102262;-73
2023/04/06 19:26:34;;;;;;;61.80;38.00;;;;;;;0.29;76.67;98912.05;105795;1254;107302;-74
2023/04/06 19:29:03;;;;;;;48.10;28.50;;;;;;;0.30;76.20;98911.48;105541;1257;95312;-72
2023/04/06 19:31:31;;;;;;;44.90;25.30;;;;;;;0.30;76.37;98910.97;105664;1251;95715;-73
2023/04/06 19:33:59;;;;;;;38.40;19.70;;;;;;;0.31;76.36;98911.66;105648;1254;107552;-72
2023/04/06 19:36:27;;;;;;;36.10;21.00;;;;;;;0.30;76.53;98910.27;105873;1250;101981;-81
2023/04/06 19:38:55;;;;;;;38.60;23.00;;;;;;;0.31;76.51;98908.85;105533;1257;107571;-74
2023/04/06 19:41:24;;;;;;;45.30;28.10;;;;;;;0.31;77.31;98911.30;105615;1254;95233;-73
2023/04/06 19:43:53;;;;;;;35.50;19.50;;;;;;;0.30;76.60;98906.08;105752;1254;95858;-74
2023/04/06 19:46:21;;;;;;;36.60;21.00;;;;;;;0.30;76.72;98905.05;105653;1251;108527;-72
2023/04/06 19:48:49;;;;;;;33.80;18.40;;;;;;;0.29;76.50;98898.95;105552;1251;101920;-74
2023/04/06 19:51:17;;;;;;;33.20;18.30;;;;;;;0.31;76.53;98902.59;105710;1251;107616;-77
2023/04/06 19:53:44;;;;;;;34.30;19.30;;;;;;;0.30;76.89;98904.18;105678;1251;95281;-72
2023/04/06 19:56:14;;;;;;;30.80;16.50;;;;;;;0.30;76.41;98901.05;105668;1256;95257;-72
2023/04/06 19:58:42;;;;;;;30.80;16.40;;;;;;;0.31;76.22;98899.96;105425;1251;108152;-73
2023/04/06 20:01:10;;;;;;;34.40;18.60;;;;;;;0.32;76.25;98899.77;105622;1250;101992;-73
2023/04/06 20:03:39;;;;;;;31.90;18.40;;;;;;;0.32;76.77;98901.67;105809;1250;107662;-73
2023/04/06 20:06:07;;;;;;;32.10;17.40;;;;;;;0.32;76.68;98904.27;105599;1257;95669;-73
2023/04/06 20:08:35;;;;;;;33.00;19.90;;;;;;;0.33;76.77;98910.02;105584;1254;95732;-72
2023/04/06 20:11:06;;;;;;;30.20;17.70;;;;;;;0.33;76.61;98901.99;105487;1257;108514;-74
2023/04/06 20:13:35;;;;;;;31.40;17.60;;;;;;;0.32;76.71;98901.49;105888;1256;102164;-71
2023/04/06 20:16:06;;;;;;;32.20;17.40;;;;;;;0.32;76.74;98895.04;105682;1251;107417;-78
2023/04/06 20:18:36;;;;;;;29.20;14.90;;;;;;;0.32;76.95;98895.05;105515;1251;95351;-72
2023/04/06 20:21:10;;;;;;;36.30;20.10;;;;;;;0.32;76.98;98894.88;105807;1251;96059;-72
2023/04/06 20:23:38;;;;;;;34.60;18.20;;;;;;;0.32;76.97;98892.25;105450;1256;107341;-71
2023/04/06 20:26:09;;;;;;;31.50;17.30;;;;;;;0.33;76.38;98891.52;105230;1257;102213;-75
2023/04/06 20:28:38;;;;;;;31.70;18.00;;;;;;;0.34;76.85;98893.41;105365;1257;107259;-79
2023/04/06 20:31:06;;;;;;;35.40;21.10;;;;;;;0.33;77.02;98891.88;108812;1251;93165;-70
2023/04/06 20:33:34;;;;;;;33.10;19.00;;;;;;;0.33;76.53;98892.23;105794;1250;95113;-76
2023/04/06 20:36:04;;;;;;;30.40;17.40;;;;;;;0.33;77.17;98888.21;107673;1250;107674;-71
2023/04/06 20:38:34;;;;;;;30.60;18.00;;;;;;;0.34;77.17;98880.68;106039;1251;102187;-72
2023/04/06 20:41:02;;;;;;;30.40;16.80;;;;;;;0.34;76.29;98878.92;108703;1250;107174;-71
2023/04/06 20:43:30;;;;;;;32.90;19.40;;;;;;;0.34;76.81;98874.92;106114;1254;95368;-71
2023/04/06 20:46:00;;;;;;;28.20;15.50;;;;;;;0.34;76.78;98877.52;108692;1251;92938;-73
2023/04/06 20:48:49;;;;;;;31.20;16.60;;;;;;;0.35;77.25;98883.09;108606;1253;110012;-71
2023/04/06 20:51:24;;;;;;;32.70;19.30;;;;;;;0.35;76.95;98880.46;108764;1250;100950;-72
2023/04/06 20:53:55;;;;;;;;;;;;;;;0.35;77.09;98873.13;108707;1251;107564;-73
2023/04/06 20:56:25;;;;;;;29.40;16.10;;;;;;;0.35;77.03;98872.09;108794;1250;93203;-71
2023/04/06 20:58:58;;;;;;;32.20;16.10;;;;;;;0.36;76.44;98871.17;108797;1251;93306;-72
2023/04/06 21:01:33;;;;;;;28.90;16.20;;;;;;;0.39;76.56;98870.56;108805;1250;108678;-73
2023/04/06 21:04:05;;;;;;;29.10;16.80;;;;;;;0.41;76.74;98872.42;108788;1250;102304;-74
2023/04/06 21:06:35;;;;;;;31.00;18.70;;;;;;;0.41;76.88;98872.76;108791;1250;107730;-76
2023/04/06 21:09:06;;;;;;;31.00;19.20;;;;;;;0.42;76.42;98873.59;108801;1251;95386;-71
2023/04/06 21:11:35;;;;;;;29.20;17.20;;;;;;;0.44;76.66;98874.58;108772;1251;94304;-74
2023/04/06 21:14:05;;;;;;;32.10;18.90;;;;;;;0.44;76.43;98874.58;105858;1250;110053;-72
2023/04/06 21:16:43;;;;;;;37.10;22.60;;;;;;;0.44;77.00;98879.98;105340;1254;102264;-73
2023/04/06 21:19:11;;;;;;;43.40;28.00;;;;;;;0.45;76.66;98882.20;105421;1254;107604;-75
2023/04/06 21:21:39;;;;;;;36.10;21.30;;;;;;;0.46;76.66;98881.29;105380;1256;97521;-75
2023/04/06 21:24:07;;;;;;;41.70;25.00;;;;;;;0.46;76.69;98879.75;105531;1253;96988;-71
2023/04/06 21:26:37;;;;;;;41.70;24.50;;;;;;;0.46;76.75;98880.08;105426;1255;111508;-72
2023/04/06 21:29:05;;;;;;;51.90;28.30;;;;;;;0.45;76.91;98877.52;105614;1254;101979;-73
2023/04/06 21:31:35;;;;;;;34.90;19.60;;;;;;;0.44;76.63;98882.59;105561;1251;108303;-71
2023/04/06 21:34:07;;;;;;;39.00;23.80;;;;;;;0.44;76.41;98879.45;105414;1251;97832;-70
2023/04/06 21:36:35;;;;;;;31.30;18.40;;;;;;;0.42;76.89;98875.48;105556;1251;97423;-72
2023/04/06 21:39:04;;;;;;;36.80;22.80;;;;;;;0.41;77.03;98873.98;105207;1267;109863;-70
2023/04/06 21:41:33;;;;;;;39.50;25.60;;;;;;;0.40;76.81;98879.78;105537;1254;100958;-71
2023/04/06 21:44:00;;;;;;;36.70;22.30;;;;;;;0.39;76.75;98872.30;105540;1250;107727;-71
2023/04/06 21:46:28;;;;;;;38.10;22.60;;;;;;;0.38;77.22;98869.54;105549;1254;96776;-73
2023/04/06 21:48:57;;;;;;;39.40;24.10;;;;;;;0.37;76.95;98869.23;105409;1256;97536;-71
2023/04/06 21:51:25;;;;;;;32.00;18.00;;;;;;;0.36;77.26;98865.23;105506;1250;109862;-71
2023/04/06 21:53:54;;;;;;;34.30;20.00;;;;;;;0.36;76.74;98863.52;105602;1254;102724;-71
2023/04/06 21:56:23;;;;;;;32.80;19.10;;;;;;;0.36;77.05;98855.65;105447;1253;107365;-70
2023/04/06 21:58:52;;;;;;;41.30;27.90;;;;;;;0.37;76.92;98858.08;105353;1255;97919;-71
2023/04/06 22:01:20;;;;;;;37.30;22.70;;;;;;;0.37;77.20;98856.50;105276;1254;97515;-71
2023/04/06 22:03:48;;;;;;;35.30;22.00;;;;;;;0.36;77.47;98857.23;105391;1254;109563;-71
2023/04/06 22:06:16;;;;;;;36.70;21.80;;;;;;;0.35;77.52;98853.27;105309;1266;102233;-72
2023/04/06 22:08:48;;;;;;;44.40;29.40;;;;;;;0.34;77.12;98853.80;105558;1251;107623;-71
2023/04/06 22:11:16;;;;;;;36.20;20.80;;;;;;;0.35;76.99;98849.23;105446;1255;97898;-71
2023/04/06 22:13:45;;;;;;;43.00;27.30;;;;;;;0.35;77.19;98850.64;105640;1250;96535;-70
2023/04/06 22:16:14;;;;;;;34.50;18.40;;;;;;;0.35;76.96;98847.85;105412;1254;109997;-71
2023/04/06 22:18:42;;;;;;;36.30;19.70;;;;;;;0.35;77.05;98851.52;105411;1254;102232;-71
2023/04/06 22:21:09;;;;;;;37.00;20.90;;;;;;;0.35;76.96;98845.75;105516;1267;108010;-70
2023/04/06 22:23:40;;;;;;;39.00;21.50;;;;;;;0.35;76.79;98842.60;105343;1253;96679;-72
2023/04/06 22:26:10;;;;;;;34.00;18.70;;;;;;;0.37;76.89;98840.80;105510;1254;96610;-73
2023/04/06 22:28:38;;;;;;;35.10;20.90;;;;;;;0.37;77.03;98838.52;105240;1254;109619;-76
2023/04/06 22:31:06;;;;;;;38.00;20.70;;;;;;;0.37;77.21;98833.63;105474;1254;102292;-71
2023/04/06 22:33:34;;;;;;;36.20;21.00;;;;;;;0.37;77.38;98831.72;105465;1265;107061;-71
2023/04/06 22:36:01;;;;;;;30.70;17.20;;;;;;;0.37;76.93;98828.77;105426;1254;96561;-71
2023/04/06 22:38:30;;;;;;;27.90;16.60;;;;;;;0.36;77.29;98829.83;105669;1251;97108;-71
2023/04/06 22:40:58;;;;;;;29.80;16.90;;;;;;;0.36;76.78;98831.58;105435;1254;109875;-71
2023/04/06 22:43:26;;;;;;;28.60;15.60;;;;;;;0.38;76.56;98834.83;105587;1254;100954;-73
2023/04/06 22:45:54;;;;;;;28.30;15.30;;;;;;;0.39;76.88;98833.57;105437;1250;107632;-73
2023/04/06 22:48:21;;;;;;;30.50;17.00;;;;;;;0.38;77.06;98829.06;105395;1256;97928;-70
2023/04/06 22:50:49;;;;;;;28.20;15.50;;;;;;;0.38;76.97;98829.42;105289;1251;97064;-75
2023/04/06 22:56:04;;;;;;;28.20;15.70;;;;;;;0.37;76.92;98832.96;105549;1254;102194;-71
2023/04/06 22:58:32;;;;;;;32.40;18.10;;;;;;;0.36;77.16;98845.36;105538;1254;107533;-70
2023/04/06 23:01:00;;;;;;;27.80;15.80;;;;;;;0.37;76.91;98855.27;105227;1256;96660;-73
2023/04/06 23:03:28;;;;;;;33.10;16.50;;;;;;;0.39;77.01;98852.06;105550;1254;97115;-71
2023/04/06 23:05:56;;;;;;;28.40;14.80;;;;;;;0.40;77.19;98848.55;105194;1273;109659;-70
2023/04/06 23:08:24;;;;;;;30.40;17.60;;;;;;;0.42;76.71;98842.01;105307;1250;100658;-71
2023/04/06 23:10:52;;;;;;;37.20;22.10;;;;;;;0.44;76.65;98840.20;105347;1253;107610;-70
2023/04/06 23:13:20;;;;;;;33.40;18.50;;;;;;;0.46;76.73;98838.05;105335;1256;96577;-70
2023/04/06 23:15:48;;;;;;;32.80;19.20;;;;;;;0.45;77.14;98835.80;105549;1254;97109;-73
2023/04/06 23:18:16;;;;;;;34.10;21.80;;;;;;;0.43;76.87;98832.89;105471;1254;109413;-70
2023/04/06 23:20:44;;;;;;;38.10;26.70;;;;;;;0.43;76.75;98826.62;105476;1254;101872;-70
2023/04/06 23:23:12;;;;;;;33.40;20.90;;;;;;;0.42;77.88;98820.56;105501;1254;107616;-72
2023/04/06 23:25:40;;;;;;;30.90;19.30;;;;;;;0.39;77.11;98806.90;105552;1254;97552;-71
2023/04/06 23:28:08;;;;;;;30.40;17.10;;;;;;;0.37;77.69;98803.45;105542;1254;96525;-71
2023/04/06 23:30:36;;;;;;;31.20;17.60;;;;;;;0.35;77.97;98806.52;105551;1251;109355;-73
2023/04/06 23:33:04;;;;;;;27.70;15.50;;;;;;;0.32;77.56;98809.56;105542;1267;102192;-71
2023/04/06 23:35:32;;;;;;;30.30;16.90;;;;;;;0.32;77.30;98814.13;105432;1258;107451;-71
2023/04/06 23:38:00;;;;;;;30.10;16.60;;;;;;;0.32;77.31;98820.03;105382;1250;96760;-75
2023/04/06 23:40:27;;;;;;;30.30;17.20;;;;;;;0.33;77.37;98828.73;105432;1254;96997;-71
2023/04/06 23:42:55;;;;;;;34.80;21.80;;;;;;;0.33;77.71;98826.45;105576;1250;109931;-71
2023/04/06 23:45:23;;;;;;;28.10;15.90;;;;;;;0.34;77.57;98821.90;105454;1251;102200;-71
2023/04/06 23:47:51;;;;;;;30.10;16.10;;;;;;;0.33;77.59;98821.59;105427;1252;107591;-73
2023/04/06 23:50:19;;;;;;;29.00;16.40;;;;;;;0.32;77.83;98819.01;105523;1254;96686;-71
2023/04/06 23:52:47;;;;;;;30.40;17.00;;;;;;;0.31;77.33;98812.92;105231;1254;98440;-71
2023/04/06 23:55:16;;;;;;;30.40;16.80;;;;;;;0.30;77.85;98803.19;105224;1252;109739;-74
2023/04/06 23:57:43;;;;;;;31.90;18.80;;;;;;;0.29;77.94;98803.05;105547;1254;101952;-73
